createdAt,value
2018-07-09T00:02:23.263Z,65.39
2018-07-09T00:04:51.716Z,64.67
2018-07-09T00:07:20.339Z,65.72
2018-07-09T00:09:48.811Z,67.64
2018-07-09T00:12:17.244Z,67.69
2018-07-09T00:14:45.821Z,67.65
2018-07-09T00:17:14.495Z,67.81
2018-07-09T00:19:42.980Z,68.04
2018-07-09T00:22:11.398Z,68.48
2018-07-09T00:24:41.181Z,69.54
2018-07-09T00:27:09.812Z,70.39
2018-07-09T00:29:38.333Z,70.48
2018-07-09T00:32:06.752Z,70.71
2018-07-09T00:34:35.204Z,71.22
2018-07-09T00:37:03.683Z,70.49
2018-07-09T00:39:32.119Z,71.20
2018-07-09T00:42:01.611Z,72.73
2018-07-09T00:44:30.104Z,74.30
2018-07-09T00:46:58.569Z,73.68
2018-07-09T00:49:27.018Z,74.20
2018-07-09T00:51:55.726Z,75.04
2018-07-09T00:54:24.700Z,75.67
2018-07-09T00:56:53.187Z,74.81
2018-07-09T00:59:21.883Z,73.87
2018-07-09T01:01:50.360Z,74.52
2018-07-09T01:04:18.804Z,75.18
2018-07-09T01:06:47.223Z,76.29
2018-07-09T01:09:15.696Z,77.21
2018-07-09T01:11:46.420Z,77.47
2018-07-09T01:14:15.071Z,78.08
2018-07-09T01:16:43.559Z,78.20
2018-07-09T01:19:12.063Z,78.13
2018-07-09T01:21:40.498Z,79.57
2018-07-09T01:24:08.940Z,79.73
2018-07-09T01:26:37.424Z,79.24
2018-07-09T01:29:05.947Z,80.21
2018-07-09T01:31:34.597Z,78.73
2018-07-09T01:34:03.035Z,77.89
2018-07-09T01:36:31.476Z,77.83
2018-07-09T01:38:59.883Z,77.99
2018-07-09T01:41:28.315Z,78.90
2018-07-09T01:43:56.752Z,79.43
2018-07-09T01:46:25.424Z,81.06
2018-07-09T01:48:53.904Z,81.66
2018-07-09T01:51:22.308Z,83.11
2018-07-09T01:53:50.715Z,86.53
2018-07-09T01:56:19.137Z,92.08
2018-07-09T01:58:54.186Z,95.42
2018-07-09T02:01:22.647Z,96.39
2018-07-09T02:03:51.701Z,95.59
2018-07-09T02:06:20.455Z,97.01
2018-07-09T02:08:49.153Z,96.92
2018-07-09T02:11:17.600Z,98.17
2018-07-09T02:13:46.052Z,98.30
2018-07-09T02:16:14.516Z,100.00
2018-07-09T02:18:43.175Z,99.84
2018-07-09T02:21:11.634Z,100.00
2018-07-09T02:23:40.393Z,100.00
2018-07-09T02:26:08.892Z,100.00
2018-07-09T02:28:37.396Z,100.00
2018-07-09T02:31:06.055Z,100.00
2018-07-09T02:33:34.479Z,100.00
2018-07-09T02:36:02.915Z,100.00
2018-07-09T02:38:31.391Z,100.00
2018-07-09T02:40:59.844Z,100.00
2018-07-09T02:43:28.324Z,100.00
2018-07-09T02:45:57.150Z,100.00
2018-07-09T02:48:25.570Z,100.00
2018-07-09T02:50:54.148Z,100.00
2018-07-09T02:53:22.792Z,100.00
2018-07-09T02:55:51.268Z,100.00
2018-07-09T02:58:19.705Z,100.00
2018-07-09T03:00:48.228Z,100.00
2018-07-09T03:03:16.596Z,93.29
2018-07-09T03:05:45.062Z,86.59
2018-07-09T03:08:13.791Z,86.21
2018-07-09T03:10:42.272Z,90.89
2018-07-09T03:13:11.031Z,88.64
2018-07-09T03:15:39.520Z,85.48
2018-07-09T03:18:07.997Z,89.49
2018-07-09T03:20:36.452Z,89.94
2018-07-09T03:23:04.916Z,95.83
2018-07-09T03:25:33.351Z,90.19
2018-07-09T03:28:01.771Z,91.20
2018-07-09T03:30:30.388Z,94.32
2018-07-09T03:32:58.827Z,94.75
2018-07-09T03:35:27.332Z,98.38
2018-07-09T03:37:55.763Z,86.45
2018-07-09T03:40:24.188Z,88.96
2018-07-09T03:42:52.934Z,92.36
2018-07-09T03:45:21.348Z,99.61
2018-07-09T03:47:49.798Z,99.21
2018-07-09T03:50:18.429Z,100.00
2018-07-09T03:52:46.913Z,100.00
2018-07-09T03:55:15.369Z,100.00
2018-07-09T03:57:43.810Z,100.00
2018-07-09T04:00:12.345Z,100.00
2018-07-09T04:02:40.753Z,100.00
2018-07-09T04:05:09.216Z,100.00
2018-07-09T04:07:37.663Z,100.00
2018-07-09T04:10:06.138Z,100.00
2018-07-09T04:12:34.600Z,100.00
2018-07-09T04:15:03.039Z,99.14
2018-07-09T04:17:31.461Z,99.20
2018-07-09T04:20:00.154Z,98.85
2018-07-09T04:22:28.540Z,98.90
2018-07-09T04:24:57.050Z,100.00
2018-07-09T04:27:25.460Z,100.00
2018-07-09T04:29:53.948Z,100.00
2018-07-09T04:32:22.452Z,99.76
2018-07-09T04:34:50.874Z,100.00
2018-07-09T04:37:19.336Z,100.00
2018-07-09T04:39:47.807Z,100.00
2018-07-09T04:42:16.270Z,100.00
2018-07-09T04:44:44.722Z,100.00
2018-07-09T04:47:13.943Z,100.00
2018-07-09T04:49:42.430Z,99.95
2018-07-09T04:52:10.895Z,100.00
2018-07-09T04:54:39.319Z,100.00
2018-07-09T04:57:07.768Z,100.00
2018-07-09T04:59:36.211Z,98.43
2018-07-09T05:02:04.717Z,98.11
2018-07-09T05:04:33.179Z,97.59
2018-07-09T05:07:01.851Z,98.61
2018-07-09T05:09:30.291Z,98.93
2018-07-09T05:11:58.745Z,98.72
2018-07-09T05:14:27.192Z,100.00
2018-07-09T05:16:55.628Z,97.95
2018-07-09T05:19:24.058Z,96.08
2018-07-09T05:21:52.552Z,95.85
2018-07-09T05:24:21.007Z,90.63
2018-07-09T05:26:49.695Z,92.72
2018-07-09T05:29:18.221Z,89.97
2018-07-09T05:31:46.666Z,88.66
2018-07-09T05:34:15.108Z,80.34
2018-07-09T05:36:43.535Z,78.94
2018-07-09T05:39:11.991Z,83.48
2018-07-09T05:42:42.928Z,79.03
2018-07-09T05:45:11.378Z,79.57
2018-07-09T05:51:11.155Z,82.50
2018-07-09T05:53:39.559Z,86.27
2018-07-09T05:56:08.039Z,85.12
2018-07-09T05:58:36.526Z,82.47
2018-07-09T06:01:05.091Z,82.68
2018-07-09T06:03:33.581Z,82.33
2018-07-09T06:06:02.068Z,83.15
2018-07-09T06:08:30.465Z,81.31
2018-07-09T06:10:58.968Z,82.70
2018-07-09T06:13:27.445Z,82.22
2018-07-09T06:15:55.999Z,82.03
2018-07-09T06:18:24.432Z,82.14
2018-07-09T06:20:53.056Z,83.21
2018-07-09T06:23:21.496Z,81.44
2018-07-09T06:25:50.114Z,82.62
2018-07-09T06:28:18.584Z,81.38
2018-07-09T06:30:47.060Z,78.51
2018-07-09T06:33:15.496Z,78.60
2018-07-09T06:35:44.019Z,80.14
2018-07-09T06:38:12.482Z,80.09
2018-07-09T06:40:40.951Z,79.02
2018-07-09T06:43:09.448Z,78.52
2018-07-09T06:45:38.103Z,78.81
2018-07-09T06:48:06.759Z,77.33
2018-07-09T06:50:35.211Z,76.50
2018-07-09T06:53:03.664Z,76.40
2018-07-09T06:55:32.096Z,76.03
2018-07-09T06:58:00.640Z,75.73
2018-07-09T07:00:29.979Z,75.81
2018-07-09T07:02:58.412Z,73.84
2018-07-09T07:05:26.863Z,73.61
2018-07-09T07:07:55.311Z,71.86
2018-07-09T07:10:24.079Z,71.46
2018-07-09T07:12:52.495Z,71.35
2018-07-09T07:15:20.983Z,71.91
2018-07-09T07:17:49.418Z,68.54
2018-07-09T07:20:17.884Z,69.45
2018-07-09T07:22:46.326Z,67.52
2018-07-09T07:25:14.902Z,68.02
2018-07-09T07:27:43.621Z,66.20
2018-07-09T07:30:12.056Z,66.68
2018-07-09T07:32:40.466Z,65.56
2018-07-09T07:35:09.005Z,61.40
2018-07-09T07:37:37.427Z,62.80
2018-07-09T07:40:06.184Z,64.94
2018-07-09T07:42:34.701Z,66.00
2018-07-09T07:45:03.215Z,64.77
2018-07-09T07:47:31.679Z,63.93
2018-07-09T07:50:00.427Z,63.89
2018-07-09T07:52:28.883Z,64.67
2018-07-09T07:54:57.300Z,63.82
2018-07-09T07:57:25.795Z,61.73
2018-07-09T07:59:54.195Z,61.99
2018-07-09T08:02:22.651Z,61.88
2018-07-09T08:04:51.124Z,62.36
2018-07-09T08:07:19.541Z,61.11
2018-07-09T08:09:48.007Z,60.54
2018-07-09T08:13:00.544Z,60.77
2018-07-09T08:14:44.919Z,60.53
2018-07-09T08:17:13.413Z,60.78
2018-07-09T08:19:41.874Z,58.74
2018-07-09T08:22:10.290Z,57.96
2018-07-09T08:24:38.772Z,58.79
2018-07-09T08:27:07.249Z,59.17
2018-07-09T08:29:35.760Z,56.17
2018-07-09T08:32:04.196Z,56.75
2018-07-09T08:34:32.664Z,53.46
2018-07-09T08:37:01.126Z,53.23
2018-07-09T08:39:29.531Z,55.24
2018-07-09T08:41:58.017Z,54.80
2018-07-09T08:44:26.443Z,54.26
2018-07-09T08:46:54.886Z,52.07
2018-07-09T08:49:23.348Z,52.62
2018-07-09T08:51:51.775Z,53.03
2018-07-09T08:54:20.236Z,52.32
2018-07-09T08:56:48.644Z,51.50
2018-07-09T08:59:17.087Z,51.39
2018-07-09T09:01:45.528Z,51.17
2018-07-09T09:04:13.985Z,51.55
2018-07-09T09:06:42.425Z,49.79
2018-07-09T09:09:10.980Z,51.39
2018-07-09T09:11:39.403Z,51.08
2018-07-09T09:14:07.865Z,48.88
2018-07-09T09:16:36.380Z,50.83
2018-07-09T09:19:04.804Z,51.42
2018-07-09T09:21:33.245Z,50.57
2018-07-09T09:24:01.730Z,50.19
2018-07-09T09:26:30.161Z,50.13
2018-07-09T09:28:58.604Z,48.47
2018-07-09T09:31:27.155Z,47.68
2018-07-09T09:33:55.575Z,48.55
2018-07-09T09:36:24.049Z,48.44
2018-07-09T09:38:52.526Z,48.08
2018-07-09T09:41:20.980Z,48.12
2018-07-09T09:43:50.440Z,46.58
2018-07-09T09:46:18.849Z,49.84
2018-07-09T09:48:47.284Z,50.98
2018-07-09T09:51:15.787Z,51.73
2018-07-09T09:53:44.250Z,49.06
2018-07-09T09:56:13.009Z,51.81
2018-07-09T09:58:41.476Z,49.47
2018-07-09T10:01:09.974Z,49.80
2018-07-09T10:03:38.401Z,50.73
2018-07-09T10:06:06.901Z,48.93
2018-07-09T10:08:35.402Z,48.87
2018-07-09T10:11:03.911Z,48.76
2018-07-09T10:13:32.344Z,53.47
2018-07-09T10:16:01.520Z,49.83
2018-07-09T10:18:29.981Z,48.65
2018-07-09T10:22:01.238Z,49.74
2018-07-09T10:24:29.700Z,45.81
2018-07-09T10:26:58.159Z,45.76
2018-07-09T10:29:26.558Z,49.19
2018-07-09T10:31:55.914Z,47.66
2018-07-09T10:34:24.383Z,49.91
2018-07-09T10:36:53.072Z,50.26
2018-07-09T10:39:21.625Z,51.16
2018-07-09T10:41:50.051Z,49.96
2018-07-09T10:44:18.519Z,51.70
2018-07-09T10:46:46.964Z,46.96
2018-07-09T10:49:15.420Z,47.02
2018-07-09T10:51:43.818Z,45.87
2018-07-09T10:54:12.330Z,48.06
2018-07-09T10:56:40.843Z,47.96
2018-07-09T10:59:09.499Z,50.22
2018-07-09T11:01:38.023Z,49.15
2018-07-09T11:04:06.937Z,50.60
2018-07-09T11:06:35.571Z,52.68
2018-07-09T11:09:05.052Z,52.28
2018-07-09T11:11:33.519Z,52.76
2018-07-09T11:14:01.932Z,52.10
2018-07-09T11:16:30.368Z,50.90
2018-07-09T11:18:59.354Z,51.27
2018-07-09T11:21:27.809Z,51.19
2018-07-09T11:23:56.248Z,50.16
2018-07-09T11:26:24.775Z,51.05
2018-07-09T11:28:53.530Z,50.59
2018-07-09T11:31:21.941Z,50.65
2018-07-09T11:33:50.380Z,49.52
2018-07-09T11:36:18.858Z,49.01
2018-07-09T11:38:47.279Z,47.88
2018-07-09T11:41:15.687Z,45.50
2018-07-09T11:43:44.169Z,47.31
2018-07-09T11:46:12.604Z,47.62
2018-07-09T11:48:41.047Z,47.13
2018-07-09T11:51:09.520Z,42.70
2018-07-09T11:53:38.212Z,40.18
2018-07-09T11:56:06.636Z,41.48
2018-07-09T11:58:35.330Z,39.16
2018-07-09T12:01:03.782Z,38.17
2018-07-09T12:03:32.223Z,37.87
2018-07-09T12:06:00.627Z,36.54
2018-07-09T12:08:29.080Z,37.68
2018-07-09T12:10:57.526Z,37.44
2018-07-09T12:13:26.065Z,36.49
2018-07-09T12:15:54.500Z,37.71
2018-07-09T12:18:22.975Z,37.32
2018-07-09T12:20:51.407Z,38.74
2018-07-09T12:23:19.847Z,40.93
2018-07-09T12:25:48.310Z,38.89
2018-07-09T12:28:17.025Z,37.46
2018-07-09T12:30:45.960Z,36.64
2018-07-09T12:33:14.443Z,33.35
2018-07-09T12:35:43.110Z,35.48
2018-07-09T12:38:11.561Z,34.57
2018-07-09T12:40:40.028Z,33.45
2018-07-09T12:43:08.880Z,34.90
2018-07-09T12:45:37.394Z,35.51
2018-07-09T12:48:06.237Z,33.20
2018-07-09T12:50:34.688Z,32.84
2018-07-09T12:53:03.347Z,31.68
2018-07-09T12:55:31.774Z,32.24
2018-07-09T12:58:00.351Z,32.86
2018-07-09T13:00:28.803Z,31.50
2018-07-09T13:02:57.242Z,33.40
2018-07-09T13:05:25.715Z,36.22
2018-07-09T13:07:54.417Z,34.50
2018-07-09T13:10:22.840Z,33.85
2018-07-09T13:12:51.267Z,33.79
2018-07-09T13:15:19.752Z,33.80
2018-07-09T13:17:48.215Z,34.01
2018-07-09T13:20:16.771Z,33.55
2018-07-09T13:22:45.471Z,37.43
2018-07-09T13:25:14.014Z,34.24
2018-07-09T13:27:42.659Z,33.63
2018-07-09T13:30:11.286Z,34.02
2018-07-09T13:32:39.891Z,33.60
2018-07-09T13:35:08.351Z,34.92
2018-07-09T13:37:36.906Z,32.07
2018-07-09T13:40:05.368Z,33.21
2018-07-09T13:42:33.878Z,32.83
2018-07-09T13:45:02.445Z,35.05
2018-07-09T13:47:30.838Z,32.59
2018-07-09T13:49:59.315Z,32.48
2018-07-09T13:52:27.896Z,32.33
2018-07-09T13:54:56.388Z,33.38
2018-07-09T13:57:25.119Z,33.19
2018-07-09T13:59:53.654Z,35.14
2018-07-09T14:02:22.035Z,35.49
2018-07-09T14:04:50.471Z,34.31
2018-07-09T14:07:19.264Z,34.59
2018-07-09T14:09:48.009Z,30.63
2018-07-09T14:12:16.440Z,31.19
2018-07-09T14:14:44.851Z,29.12
2018-07-09T14:17:13.742Z,30.40
2018-07-09T14:20:20.267Z,31.24
2018-07-09T14:22:48.721Z,31.09
2018-07-09T14:25:17.583Z,29.22
2018-07-09T14:27:46.006Z,32.01
2018-07-09T14:30:14.488Z,32.55
2018-07-09T14:32:43.420Z,32.19
2018-07-09T14:35:11.953Z,30.66
2018-07-09T14:37:40.364Z,30.79
2018-07-09T14:40:08.803Z,31.10
2018-07-09T14:42:37.239Z,30.86
2018-07-09T14:45:06.010Z,31.79
2018-07-09T14:47:34.502Z,31.84
2018-07-09T14:50:03.134Z,33.98
2018-07-09T14:52:31.774Z,31.28
2018-07-09T14:55:00.370Z,32.72
2018-07-09T14:57:28.856Z,32.93
2018-07-09T14:59:57.311Z,32.57
2018-07-09T15:02:25.713Z,35.22
2018-07-09T15:04:54.151Z,35.37
2018-07-09T15:07:22.919Z,37.13
2018-07-09T15:09:51.356Z,35.26
2018-07-09T15:12:20.199Z,34.54
2018-07-09T15:14:48.747Z,33.78
2018-07-09T15:17:17.463Z,34.03
2018-07-09T15:19:45.939Z,33.72
2018-07-09T15:22:14.419Z,33.29
2018-07-09T15:24:42.940Z,33.80
2018-07-09T15:27:11.376Z,33.11
2018-07-09T15:29:40.162Z,32.42
2018-07-09T15:32:19.738Z,33.07
2018-07-09T15:34:48.160Z,33.40
2018-07-09T15:37:16.891Z,34.18
2018-07-09T15:39:45.276Z,35.40
2018-07-09T15:42:13.766Z,38.18
2018-07-09T15:44:42.803Z,38.26
2018-07-09T15:47:11.670Z,38.65
2018-07-09T15:49:40.784Z,40.12
2018-07-09T15:52:09.202Z,39.25
2018-07-09T15:54:37.684Z,40.64
2018-07-09T15:57:06.145Z,41.67
2018-07-09T15:59:34.888Z,40.47
2018-07-09T16:02:03.368Z,42.92
2018-07-09T16:04:31.779Z,42.42
2018-07-09T16:07:00.397Z,42.96
2018-07-09T16:09:29.701Z,43.73
2018-07-09T16:11:58.131Z,44.31
2018-07-09T16:14:26.787Z,44.20
2018-07-09T16:16:55.236Z,45.26
2018-07-09T16:19:23.897Z,43.67
2018-07-09T16:21:52.792Z,45.81
2018-07-09T16:24:21.232Z,46.20
2018-07-09T16:26:49.756Z,45.40
2018-07-09T16:29:18.251Z,44.37
2018-07-09T16:31:46.768Z,45.54
2018-07-09T16:34:15.699Z,45.75
2018-07-09T16:36:44.124Z,46.10
2018-07-09T16:39:12.727Z,45.73
2018-07-09T16:41:41.171Z,47.82
2018-07-09T16:44:09.952Z,48.22
2018-07-09T16:46:38.468Z,51.43
2018-07-09T16:49:06.960Z,51.79
2018-07-09T16:51:35.416Z,52.10
2018-07-09T16:54:03.963Z,53.16
2018-07-09T16:56:32.480Z,52.62
2018-07-09T16:59:00.912Z,50.91
2018-07-09T17:01:29.309Z,48.19
2018-07-09T17:03:57.778Z,49.10
2018-07-09T17:06:26.482Z,48.06
2018-07-09T17:08:54.895Z,49.32
2018-07-09T17:11:23.366Z,50.29
2018-07-09T17:13:51.839Z,52.53
2018-07-09T17:16:20.294Z,53.37
2018-07-09T17:18:48.808Z,52.96
2018-07-09T17:21:17.427Z,52.71
2018-07-09T17:23:46.107Z,54.53
2018-07-09T17:26:14.616Z,54.25
2018-07-09T17:28:43.133Z,54.86
2018-07-09T17:31:11.984Z,54.08
2018-07-09T17:33:40.479Z,54.30
2018-07-09T17:36:08.977Z,51.95
2018-07-09T17:38:37.441Z,51.97
2018-07-09T17:41:06.287Z,51.71
2018-07-09T17:43:34.977Z,53.97
2018-07-09T17:46:03.662Z,53.79
2018-07-09T17:48:32.057Z,53.34
2018-07-09T17:51:00.767Z,53.77
2018-07-09T17:53:29.299Z,52.31
2018-07-09T17:55:57.803Z,53.06
2018-07-09T17:58:26.253Z,51.38
2018-07-09T18:00:55.052Z,51.15
2018-07-09T18:03:23.480Z,52.55
2018-07-09T18:05:51.942Z,50.42
2018-07-09T18:08:20.776Z,49.61
2018-07-09T18:10:49.436Z,49.04
2018-07-09T18:13:17.898Z,50.25
2018-07-09T18:15:46.439Z,50.88
2018-07-09T18:18:14.855Z,49.56
2018-07-09T18:20:43.563Z,48.59
2018-07-09T18:23:12.012Z,48.18
2018-07-09T18:25:40.630Z,48.31
2018-07-09T18:28:09.052Z,48.28
2018-07-09T18:30:37.591Z,48.26
2018-07-09T18:33:06.515Z,48.37
2018-07-09T18:35:35.133Z,48.57
2018-07-09T18:38:03.863Z,48.25
2018-07-09T18:40:32.291Z,48.66
2018-07-09T18:43:00.715Z,48.31
2018-07-09T18:45:29.235Z,48.38
2018-07-09T18:47:57.674Z,50.76
2018-07-09T18:50:26.200Z,50.90
2018-07-09T18:52:54.706Z,50.00
2018-07-09T18:55:23.206Z,50.57
2018-07-09T18:57:51.678Z,50.09
2018-07-09T19:00:20.188Z,50.39
2018-07-09T19:02:48.654Z,50.25
2018-07-09T19:05:17.287Z,51.13
2018-07-09T19:07:45.896Z,51.32
2018-07-09T19:10:14.572Z,50.82
2018-07-09T19:12:43.198Z,52.21
2018-07-09T19:15:11.648Z,54.30
2018-07-09T19:17:52.978Z,53.50
2018-07-09T19:20:32.845Z,55.63
2018-07-09T19:23:00.089Z,55.99
2018-07-09T19:25:27.675Z,54.81
2018-07-09T19:27:54.923Z,55.77
2018-07-09T19:30:22.148Z,55.28
2018-07-09T19:32:49.400Z,56.12
2018-07-09T19:35:17.073Z,56.08
2018-07-09T19:37:45.890Z,57.43
2018-07-09T19:40:12.875Z,56.34
2018-07-09T19:42:40.134Z,57.58
2018-07-09T19:45:07.423Z,60.67
2018-07-09T19:47:34.639Z,60.77
2018-07-09T19:50:01.919Z,59.63
2018-07-09T19:52:29.996Z,60.53
2018-07-09T19:54:57.275Z,60.26
2018-07-09T19:57:24.502Z,58.56
2018-07-09T19:59:51.729Z,59.05
2018-07-09T20:02:19.019Z,60.08
2018-07-09T20:04:46.318Z,60.13
2018-07-09T20:07:13.566Z,60.62
2018-07-09T20:09:46.165Z,60.38
2018-07-09T20:12:18.757Z,62.05
2018-07-09T20:14:51.326Z,63.80
2018-07-09T20:17:27.742Z,61.96
2018-07-09T20:19:55.036Z,64.00
2018-07-09T20:22:22.256Z,64.84
2018-07-09T20:24:49.484Z,64.89
2018-07-09T20:27:16.743Z,65.00
2018-07-09T20:29:43.968Z,64.61
2018-07-09T20:32:11.228Z,64.36
2018-07-09T20:34:38.520Z,63.94
2018-07-09T20:37:05.784Z,63.28
2018-07-09T20:39:33.000Z,63.02
2018-07-09T20:42:00.248Z,62.13
2018-07-09T20:44:27.503Z,62.88
2018-07-09T20:46:54.752Z,64.35
2018-07-09T20:49:21.991Z,66.81
2018-07-09T20:51:49.231Z,67.76
2018-07-09T20:54:16.462Z,68.70
2018-07-09T20:56:43.728Z,68.54
2018-07-09T20:59:10.983Z,67.96
2018-07-09T21:01:38.215Z,65.55
2018-07-09T21:04:10.642Z,65.89
2018-07-09T21:06:37.915Z,65.81
2018-07-09T21:09:05.538Z,65.84
2018-07-09T21:11:32.767Z,66.50
2018-07-09T21:14:00.023Z,64.90
2018-07-09T21:16:27.248Z,66.78
2018-07-09T21:18:54.501Z,65.91
2018-07-09T21:21:26.138Z,66.20
2018-07-09T21:23:53.791Z,65.93
2018-07-09T21:26:21.107Z,66.16
2018-07-09T21:28:48.722Z,67.30
2018-07-09T21:31:15.951Z,66.96
2018-07-09T21:33:43.636Z,67.27
2018-07-09T21:36:11.451Z,67.71
2018-07-09T21:38:39.135Z,65.94
2018-07-09T21:41:06.359Z,66.75
2018-07-09T21:43:33.681Z,66.62
2018-07-09T21:46:00.864Z,67.00
2018-07-09T21:48:29.795Z,67.94
2018-07-09T21:50:55.969Z,67.97
2018-07-09T21:53:24.267Z,68.47
2018-07-09T21:55:51.764Z,68.64
2018-07-09T21:58:19.003Z,69.62
2018-07-09T22:00:46.263Z,73.02
2018-07-09T22:03:13.495Z,72.39
2018-07-09T22:05:40.771Z,70.70
2018-07-09T22:08:07.997Z,73.05
2018-07-09T22:10:35.237Z,73.08
2018-07-09T22:13:02.487Z,73.41
2018-07-09T22:15:29.707Z,76.23
2018-07-09T22:17:56.987Z,72.69
2018-07-09T22:20:24.242Z,72.23
2018-07-09T22:22:51.475Z,74.91
2018-07-09T22:25:18.733Z,75.79
2018-07-09T22:27:45.955Z,74.63
2018-07-09T22:30:13.237Z,74.23
2018-07-09T22:32:41.871Z,71.72
2018-07-09T22:35:10.346Z,71.69
2018-07-09T22:37:38.798Z,71.21
2018-07-09T22:40:07.253Z,70.62
2018-07-09T22:42:35.708Z,71.59
2018-07-09T22:45:04.147Z,73.09
2018-07-09T22:47:32.640Z,74.62
2018-07-09T22:50:01.060Z,76.40
2018-07-09T22:52:29.478Z,75.88
2018-07-09T22:55:08.940Z,76.22
2018-07-09T22:57:37.352Z,74.44
2018-07-09T23:00:05.815Z,73.94
2018-07-09T23:03:37.166Z,73.27
2018-07-09T23:06:05.750Z,72.60
2018-07-09T23:08:34.260Z,72.59
2018-07-09T23:13:46.524Z,73.13
2018-07-09T23:16:50.156Z,73.73
2018-07-09T23:19:31.061Z,75.04
2018-07-09T23:22:10.547Z,78.95
2018-07-09T23:24:37.804Z,77.94
2018-07-09T23:27:05.056Z,79.02
2018-07-09T23:29:32.282Z,80.44
2018-07-09T23:31:59.541Z,83.41
2018-07-09T23:34:26.766Z,84.83
2018-07-09T23:36:54.108Z,85.26
2018-07-09T23:39:21.606Z,85.57
2018-07-09T23:41:48.836Z,87.32
2018-07-09T23:44:16.115Z,88.18
2018-07-09T23:46:43.363Z,88.94
2018-07-09T23:49:10.626Z,89.93
2018-07-09T23:51:37.901Z,90.29
2018-07-09T23:54:05.149Z,87.55
2018-07-09T23:57:44.930Z,88.38
